This is the latest recevied weather packets stored in our database for station/object PI8ANH-13. If no packets are shown the sender has not sent any weather packets the latest 10 day(s).
| Time | Temp. | Humidity | Pressure | Rain* | Wind** | Luminosity | Snow |
|---|---|---|---|---|---|---|---|
| 1787435098 | 12.22° C | 88% | 1023 hPa | - | - | - | - |
| 1787434198 | 13.89° C | 77% | 1023 hPa | - | - | - | - |
| 1787433298 | 13.89° C | 77% | 1023 hPa | - | - | - | - |
| 1787432398 | 13.89° C | 77% | 1022 hPa | - | - | - | - |
| 1787431498 | 13.89° C | 77% | 1022 hPa | - | - | - | - |
| 1787430598 | 13.89° C | 77% | 1022 hPa | - | - | - | - |
| 1787429698 | 13.89° C | 77% | 1022 hPa | - | - | - | - |
| 1787428798 | 13.89° C | 82% | 1022 hPa | - | - | - | - |
| 1787427898 | 13.89° C | 82% | 1022 hPa | - | - | - | - |
| 1787426998 | 16.11° C | 68% | 1022 hPa | - | - | - | - |
| 1787426098 | 16.11° C | 68% | 1022 hPa | - | - | - | - |
| 1787425197 | 16.11° C | 68% | 1021 hPa | - | - | - | - |
| 1787424298 | 16.11° C | 68% | 1021 hPa | - | - | - | - |
| 1787423398 | 17.22° C | 63% | 1021 hPa | - | - | - | - |
| 1787422498 | 17.22° C | 63% | 1021 hPa | - | - | - | - |
| 1787421598 | 17.22° C | 68% | 1021 hPa | - | - | - | - |
| 1787420697 | 17.22° C | 68% | 1021 hPa | - | - | - | - |
| 1787419798 | 17.78° C | 64% | 1021 hPa | - | - | - | - |
| 1787418898 | 17.78° C | 64% | 1021 hPa | - | - | - | - |
| 1787417998 | 20° C | 56% | 1021 hPa | - | - | - | - |
| 1787417098 | 20° C | 56% | 1021 hPa | - | - | - | - |
| 1787416198 | 18.89° C | 56% | 1021 hPa | - | - | - | - |
| 1787415298 | 18.89° C | 56% | 1021 hPa | - | - | - | - |
| 1787414398 | 18.89° C | 56% | 1020 hPa | - | - | - | - |
| 1787413498 | 18.89° C | 56% | 1020 hPa | - | - | - | - |
* Rain since midnight (hover to see other rain measurements)
** Current wind speed in m/s (hover to see current wind gust speed)